sensor_id;sensor_type;location;lat;lon;timestamp;temperature;humidity
22147;DHT22;13074;48.298;14.424;2023-12-29T00:01:14;9.20;99.90
22147;DHT22;13074;48.298;14.424;2023-12-29T00:03:41;9.20;99.90
22147;DHT22;13074;48.298;14.424;2023-12-29T00:06:10;9.20;99.90
22147;DHT22;13074;48.298;14.424;2023-12-29T00:08:38;9.10;99.90
22147;DHT22;13074;48.298;14.424;2023-12-29T00:11:05;9.20;99.90
22147;DHT22;13074;48.298;14.424;2023-12-29T00:13:33;9.20;99.90
22147;DHT22;13074;48.298;14.424;2023-12-29T00:16:00;9.10;99.90
22147;DHT22;13074;48.298;14.424;2023-12-29T00:18:28;9.10;99.90
22147;DHT22;13074;48.298;14.424;2023-12-29T00:20:55;9.10;99.90
22147;DHT22;13074;48.298;14.424;2023-12-29T00:23:24;9.20;99.90
22147;DHT22;13074;48.298;14.424;2023-12-29T00:25:51;9.20;99.90
22147;DHT22;13074;48.298;14.424;2023-12-29T00:28:19;9.20;99.90
22147;DHT22;13074;48.298;14.424;2023-12-29T00:30:46;9.20;99.90
22147;DHT22;13074;48.298;14.424;2023-12-29T00:33:14;9.10;99.90
22147;DHT22;13074;48.298;14.424;2023-12-29T00:35:41;9.10;99.90
22147;DHT22;13074;48.298;14.424;2023-12-29T00:38:09;8.90;99.90
22147;DHT22;13074;48.298;14.424;2023-12-29T00:40:38;8.70;99.90
22147;DHT22;13074;48.298;14.424;2023-12-29T00:43:05;8.60;99.90
22147;DHT22;13074;48.298;14.424;2023-12-29T00:45:33;8.60;99.90
22147;DHT22;13074;48.298;14.424;2023-12-29T00:48:01;8.60;99.90
22147;DHT22;13074;48.298;14.424;2023-12-29T00:50:29;8.60;99.90
22147;DHT22;13074;48.298;14.424;2023-12-29T00:52:56;8.60;99.90
22147;DHT22;13074;48.298;14.424;2023-12-29T00:55:24;8.60;99.90
22147;DHT22;13074;48.298;14.424;2023-12-29T00:57:52;8.50;99.90
22147;DHT22;13074;48.298;14.424;2023-12-29T01:00:21;8.40;99.90
22147;DHT22;13074;48.298;14.424;2023-12-29T01:02:48;8.60;99.90
22147;DHT22;13074;48.298;14.424;2023-12-29T01:08:21;8.70;99.90
22147;DHT22;13074;48.298;14.424;2023-12-29T01:10:48;8.80;99.90
22147;DHT22;13074;48.298;14.424;2023-12-29T01:13:36;8.90;99.90
22147;DHT22;13074;48.298;14.424;2023-12-29T01:16:04;8.90;99.90
22147;DHT22;13074;48.298;14.424;2023-12-29T01:18:32;9.00;99.90
22147;DHT22;13074;48.298;14.424;2023-12-29T01:21:00;9.00;99.90
22147;DHT22;13074;48.298;14.424;2023-12-29T01:23:27;9.10;99.90
22147;DHT22;13074;48.298;14.424;2023-12-29T01:25:55;9.10;99.90
22147;DHT22;13074;48.298;14.424;2023-12-29T01:28:22;9.10;99.90
22147;DHT22;13074;48.298;14.424;2023-12-29T01:30:53;9.10;99.90
22147;DHT22;13074;48.298;14.424;2023-12-29T01:33:20;9.10;99.90
22147;DHT22;13074;48.298;14.424;2023-12-29T01:35:48;9.10;99.90
22147;DHT22;13074;48.298;14.424;2023-12-29T01:38:16;9.10;99.90
22147;DHT22;13074;48.298;14.424;2023-12-29T01:40:43;9.10;99.90
22147;DHT22;13074;48.298;14.424;2023-12-29T01:43:11;9.20;99.90
22147;DHT22;13074;48.298;14.424;2023-12-29T01:45:39;9.10;99.90
22147;DHT22;13074;48.298;14.424;2023-12-29T01:48:09;9.20;99.90
22147;DHT22;13074;48.298;14.424;2023-12-29T01:50:36;9.20;99.90
22147;DHT22;13074;48.298;14.424;2023-12-29T01:53:04;9.20;99.90
22147;DHT22;13074;48.298;14.424;2023-12-29T01:55:32;9.20;99.90
22147;DHT22;13074;48.298;14.424;2023-12-29T01:58:01;9.20;99.90
22147;DHT22;13074;48.298;14.424;2023-12-29T02:00:29;9.20;99.90
22147;DHT22;13074;48.298;14.424;2023-12-29T02:05:34;9.20;99.90
22147;DHT22;13074;48.298;14.424;2023-12-29T02:08:03;9.20;99.90
22147;DHT22;13074;48.298;14.424;2023-12-29T02:10:31;9.20;99.90
22147;DHT22;13074;48.298;14.424;2023-12-29T02:12:59;9.10;99.90
22147;DHT22;13074;48.298;14.424;2023-12-29T02:15:26;9.10;99.90
22147;DHT22;13074;48.298;14.424;2023-12-29T02:18:02;9.00;99.90
22147;DHT22;13074;48.298;14.424;2023-12-29T02:20:30;8.90;99.90
22147;DHT22;13074;48.298;14.424;2023-12-29T02:22:59;8.80;99.90
22147;DHT22;13074;48.298;14.424;2023-12-29T02:25:30;8.70;99.90
22147;DHT22;13074;48.298;14.424;2023-12-29T02:28:01;8.60;99.90
22147;DHT22;13074;48.298;14.424;2023-12-29T02:30:38;8.40;99.90
22147;DHT22;13074;48.298;14.424;2023-12-29T02:33:10;8.30;99.90
22147;DHT22;13074;48.298;14.424;2023-12-29T02:35:43;8.20;99.90
22147;DHT22;13074;48.298;14.424;2023-12-29T02:38:11;8.10;99.90
22147;DHT22;13074;48.298;14.424;2023-12-29T02:40:40;8.10;99.90
22147;DHT22;13074;48.298;14.424;2023-12-29T02:43:09;8.10;99.90
22147;DHT22;13074;48.298;14.424;2023-12-29T02:45:36;8.20;99.90
22147;DHT22;13074;48.298;14.424;2023-12-29T02:48:04;8.20;99.90
22147;DHT22;13074;48.298;14.424;2023-12-29T02:50:31;8.20;99.90
22147;DHT22;13074;48.298;14.424;2023-12-29T02:52:58;8.30;99.90
22147;DHT22;13074;48.298;14.424;2023-12-29T02:55:26;8.30;99.90
22147;DHT22;13074;48.298;14.424;2023-12-29T02:57:55;8.30;99.90
22147;DHT22;13074;48.298;14.424;2023-12-29T03:00:23;8.30;99.90
22147;DHT22;13074;48.298;14.424;2023-12-29T03:02:50;8.20;99.90
22147;DHT22;13074;48.298;14.424;2023-12-29T03:05:18;8.20;99.90
22147;DHT22;13074;48.298;14.424;2023-12-29T03:07:45;8.10;99.90
22147;DHT22;13074;48.298;14.424;2023-12-29T03:10:13;8.00;99.90
22147;DHT22;13074;48.298;14.424;2023-12-29T03:12:40;7.90;99.90
22147;DHT22;13074;48.298;14.424;2023-12-29T03:15:09;7.90;99.90
22147;DHT22;13074;48.298;14.424;2023-12-29T03:17:37;7.80;99.90
22147;DHT22;13074;48.298;14.424;2023-12-29T03:20:06;7.80;99.90
22147;DHT22;13074;48.298;14.424;2023-12-29T03:22:36;7.70;99.90
22147;DHT22;13074;48.298;14.424;2023-12-29T03:25:04;7.70;99.90
22147;DHT22;13074;48.298;14.424;2023-12-29T03:27:31;7.70;99.90
22147;DHT22;13074;48.298;14.424;2023-12-29T03:29:58;7.70;99.90
22147;DHT22;13074;48.298;14.424;2023-12-29T03:32:27;7.80;99.90
22147;DHT22;13074;48.298;14.424;2023-12-29T03:34:55;7.70;99.90
22147;DHT22;13074;48.298;14.424;2023-12-29T03:37:23;7.70;99.90
22147;DHT22;13074;48.298;14.424;2023-12-29T03:39:50;7.70;99.90
22147;DHT22;13074;48.298;14.424;2023-12-29T03:42:17;7.70;99.90
22147;DHT22;13074;48.298;14.424;2023-12-29T03:44:45;7.60;99.90
22147;DHT22;13074;48.298;14.424;2023-12-29T03:47:12;7.50;99.90
22147;DHT22;13074;48.298;14.424;2023-12-29T03:49:41;7.50;99.90
22147;DHT22;13074;48.298;14.424;2023-12-29T03:52:08;7.50;99.90
22147;DHT22;13074;48.298;14.424;2023-12-29T03:54:37;7.60;99.90
22147;DHT22;13074;48.298;14.424;2023-12-29T03:57:05;7.60;99.90
22147;DHT22;13074;48.298;14.424;2023-12-29T03:59:32;7.70;99.90
22147;DHT22;13074;48.298;14.424;2023-12-29T04:02:03;7.80;99.90
22147;DHT22;13074;48.298;14.424;2023-12-29T04:04:32;8.10;99.90
22147;DHT22;13074;48.298;14.424;2023-12-29T04:07:01;8.30;99.90
22147;DHT22;13074;48.298;14.424;2023-12-29T04:09:30;8.40;99.90
22147;DHT22;13074;48.298;14.424;2023-12-29T04:11:57;8.40;99.90
22147;DHT22;13074;48.298;14.424;2023-12-29T04:14:24;8.50;99.90
22147;DHT22;13074;48.298;14.424;2023-12-29T04:16:57;8.50;99.90
22147;DHT22;13074;48.298;14.424;2023-12-29T04:19:26;8.40;99.90
22147;DHT22;13074;48.298;14.424;2023-12-29T04:21:53;8.40;99.90
22147;DHT22;13074;48.298;14.424;2023-12-29T04:24:22;8.40;99.90
22147;DHT22;13074;48.298;14.424;2023-12-29T04:26:50;8.30;99.90
22147;DHT22;13074;48.298;14.424;2023-12-29T04:29:18;8.30;99.90
22147;DHT22;13074;48.298;14.424;2023-12-29T04:32:00;8.20;99.90
22147;DHT22;13074;48.298;14.424;2023-12-29T04:34:27;8.10;99.90
22147;DHT22;13074;48.298;14.424;2023-12-29T04:36:55;7.90;99.90
22147;DHT22;13074;48.298;14.424;2023-12-29T04:39:24;7.70;99.90
22147;DHT22;13074;48.298;14.424;2023-12-29T04:41:52;7.70;99.90
22147;DHT22;13074;48.298;14.424;2023-12-29T04:44:19;7.70;99.90
22147;DHT22;13074;48.298;14.424;2023-12-29T04:46:47;7.70;99.90
22147;DHT22;13074;48.298;14.424;2023-12-29T04:49:15;7.70;99.90
22147;DHT22;13074;48.298;14.424;2023-12-29T04:51:42;7.60;99.90
22147;DHT22;13074;48.298;14.424;2023-12-29T04:54:10;7.60;99.90
22147;DHT22;13074;48.298;14.424;2023-12-29T04:56:39;7.50;99.90
22147;DHT22;13074;48.298;14.424;2023-12-29T04:59:06;7.60;99.90
22147;DHT22;13074;48.298;14.424;2023-12-29T05:01:33;7.60;99.90
22147;DHT22;13074;48.298;14.424;2023-12-29T05:04:01;7.50;99.90
22147;DHT22;13074;48.298;14.424;2023-12-29T05:06:28;7.50;99.90
22147;DHT22;13074;48.298;14.424;2023-12-29T05:08:55;7.50;99.90
22147;DHT22;13074;48.298;14.424;2023-12-29T05:11:22;7.50;99.90
22147;DHT22;13074;48.298;14.424;2023-12-29T05:13:51;7.40;99.90
22147;DHT22;13074;48.298;14.424;2023-12-29T05:16:18;7.30;99.90
22147;DHT22;13074;48.298;14.424;2023-12-29T05:18:46;7.20;99.90
22147;DHT22;13074;48.298;14.424;2023-12-29T05:21:16;7.10;99.90
22147;DHT22;13074;48.298;14.424;2023-12-29T05:23:44;7.10;99.90
22147;DHT22;13074;48.298;14.424;2023-12-29T05:26:13;7.00;99.90
22147;DHT22;13074;48.298;14.424;2023-12-29T05:28:41;7.00;99.90
22147;DHT22;13074;48.298;14.424;2023-12-29T05:31:10;7.00;99.90
22147;DHT22;13074;48.298;14.424;2023-12-29T05:33:37;7.00;99.90
22147;DHT22;13074;48.298;14.424;2023-12-29T05:36:09;7.10;99.90
22147;DHT22;13074;48.298;14.424;2023-12-29T05:38:37;7.30;99.90
22147;DHT22;13074;48.298;14.424;2023-12-29T05:41:05;7.40;99.90
22147;DHT22;13074;48.298;14.424;2023-12-29T05:43:33;7.50;99.90
22147;DHT22;13074;48.298;14.424;2023-12-29T05:46:01;7.60;99.90
22147;DHT22;13074;48.298;14.424;2023-12-29T05:48:30;7.70;99.90
22147;DHT22;13074;48.298;14.424;2023-12-29T05:50:57;7.80;99.90
22147;DHT22;13074;48.298;14.424;2023-12-29T05:53:25;7.80;99.90
22147;DHT22;13074;48.298;14.424;2023-12-29T05:55:52;7.80;99.90
22147;DHT22;13074;48.298;14.424;2023-12-29T05:58:20;7.90;99.90
22147;DHT22;13074;48.298;14.424;2023-12-29T06:00:47;8.00;99.90
22147;DHT22;13074;48.298;14.424;2023-12-29T06:03:15;8.00;99.90
22147;DHT22;13074;48.298;14.424;2023-12-29T06:05:44;8.10;99.90
22147;DHT22;13074;48.298;14.424;2023-12-29T06:08:11;8.10;99.90
22147;DHT22;13074;48.298;14.424;2023-12-29T06:10:39;8.10;99.90
22147;DHT22;13074;48.298;14.424;2023-12-29T06:13:06;8.10;99.90
22147;DHT22;13074;48.298;14.424;2023-12-29T06:15:34;8.10;99.90
22147;DHT22;13074;48.298;14.424;2023-12-29T06:18:02;8.10;99.90
22147;DHT22;13074;48.298;14.424;2023-12-29T06:20:30;8.10;99.90
22147;DHT22;13074;48.298;14.424;2023-12-29T06:22:59;8.10;99.90
22147;DHT22;13074;48.298;14.424;2023-12-29T06:25:27;8.10;99.90
22147;DHT22;13074;48.298;14.424;2023-12-29T06:27:54;8.10;99.90
22147;DHT22;13074;48.298;14.424;2023-12-29T06:30:22;8.10;99.90
22147;DHT22;13074;48.298;14.424;2023-12-29T06:32:49;8.10;99.90
22147;DHT22;13074;48.298;14.424;2023-12-29T06:35:17;8.20;99.90
22147;DHT22;13074;48.298;14.424;2023-12-29T06:37:45;8.20;99.90
22147;DHT22;13074;48.298;14.424;2023-12-29T06:40:15;8.20;99.90
22147;DHT22;13074;48.298;14.424;2023-12-29T06:42:43;8.20;99.90
22147;DHT22;13074;48.298;14.424;2023-12-29T06:45:10;8.20;99.90
22147;DHT22;13074;48.298;14.424;2023-12-29T06:47:38;8.30;99.90
22147;DHT22;13074;48.298;14.424;2023-12-29T06:50:06;8.40;99.90
22147;DHT22;13074;48.298;14.424;2023-12-29T06:52:38;8.40;99.90
22147;DHT22;13074;48.298;14.424;2023-12-29T06:55:06;8.50;99.90
22147;DHT22;13074;48.298;14.424;2023-12-29T06:57:36;8.60;99.90
22147;DHT22;13074;48.298;14.424;2023-12-29T07:00:05;8.70;99.90
22147;DHT22;13074;48.298;14.424;2023-12-29T07:02:32;8.80;99.90
22147;DHT22;13074;48.298;14.424;2023-12-29T07:05:00;8.80;99.90
22147;DHT22;13074;48.298;14.424;2023-12-29T07:07:27;8.90;99.90
22147;DHT22;13074;48.298;14.424;2023-12-29T07:09:56;9.00;99.90
22147;DHT22;13074;48.298;14.424;2023-12-29T07:12:23;9.00;99.90
22147;DHT22;13074;48.298;14.424;2023-12-29T07:14:52;9.10;99.90
22147;DHT22;13074;48.298;14.424;2023-12-29T07:17:20;9.10;99.90
22147;DHT22;13074;48.298;14.424;2023-12-29T07:19:47;9.10;99.90
22147;DHT22;13074;48.298;14.424;2023-12-29T07:22:15;9.20;99.90
22147;DHT22;13074;48.298;14.424;2023-12-29T07:24:43;9.20;99.90
22147;DHT22;13074;48.298;14.424;2023-12-29T07:27:11;9.30;99.90
22147;DHT22;13074;48.298;14.424;2023-12-29T07:29:38;9.30;99.90
22147;DHT22;13074;48.298;14.424;2023-12-29T07:32:08;9.40;99.90
22147;DHT22;13074;48.298;14.424;2023-12-29T07:34:35;9.50;99.90
22147;DHT22;13074;48.298;14.424;2023-12-29T07:37:03;9.60;99.90
22147;DHT22;13074;48.298;14.424;2023-12-29T07:39:31;9.60;99.90
22147;DHT22;13074;48.298;14.424;2023-12-29T07:41:58;9.70;99.90
22147;DHT22;13074;48.298;14.424;2023-12-29T07:44:26;9.80;99.90
22147;DHT22;13074;48.298;14.424;2023-12-29T07:46:53;9.80;99.90
22147;DHT22;13074;48.298;14.424;2023-12-29T07:49:22;9.90;99.90
22147;DHT22;13074;48.298;14.424;2023-12-29T07:51:50;9.90;99.90
22147;DHT22;13074;48.298;14.424;2023-12-29T07:54:17;9.80;99.90
22147;DHT22;13074;48.298;14.424;2023-12-29T07:56:45;9.90;99.90
22147;DHT22;13074;48.298;14.424;2023-12-29T07:59:12;10.00;99.90
22147;DHT22;13074;48.298;14.424;2023-12-29T08:01:40;10.10;99.90
22147;DHT22;13074;48.298;14.424;2023-12-29T08:04:07;10.20;99.90
22147;DHT22;13074;48.298;14.424;2023-12-29T08:06:39;10.30;99.90
22147;DHT22;13074;48.298;14.424;2023-12-29T08:09:06;10.30;99.90
22147;DHT22;13074;48.298;14.424;2023-12-29T08:11:34;10.30;99.90
22147;DHT22;13074;48.298;14.424;2023-12-29T08:14:01;10.40;99.90
22147;DHT22;13074;48.298;14.424;2023-12-29T08:16:29;10.50;99.90
22147;DHT22;13074;48.298;14.424;2023-12-29T08:18:56;10.50;99.90
22147;DHT22;13074;48.298;14.424;2023-12-29T08:21:24;10.50;99.90
22147;DHT22;13074;48.298;14.424;2023-12-29T08:23:53;10.50;99.90
22147;DHT22;13074;48.298;14.424;2023-12-29T08:26:20;10.10;99.90
22147;DHT22;13074;48.298;14.424;2023-12-29T08:28:48;10.00;99.90
22147;DHT22;13074;48.298;14.424;2023-12-29T08:31:15;9.90;99.90
22147;DHT22;13074;48.298;14.424;2023-12-29T08:33:43;10.00;99.90
22147;DHT22;13074;48.298;14.424;2023-12-29T08:36:11;10.20;99.90
22147;DHT22;13074;48.298;14.424;2023-12-29T08:38:39;10.30;99.90
22147;DHT22;13074;48.298;14.424;2023-12-29T08:41:08;10.30;99.90
22147;DHT22;13074;48.298;14.424;2023-12-29T08:43:36;10.40;99.90
22147;DHT22;13074;48.298;14.424;2023-12-29T08:46:03;10.50;99.90
22147;DHT22;13074;48.298;14.424;2023-12-29T08:48:31;10.70;99.90
22147;DHT22;13074;48.298;14.424;2023-12-29T08:50:58;10.80;99.90
22147;DHT22;13074;48.298;14.424;2023-12-29T08:53:27;10.80;99.90
22147;DHT22;13074;48.298;14.424;2023-12-29T08:55:57;10.90;99.90
22147;DHT22;13074;48.298;14.424;2023-12-29T08:58:26;11.00;99.90
22147;DHT22;13074;48.298;14.424;2023-12-29T09:00:53;11.20;99.90
22147;DHT22;13074;48.298;14.424;2023-12-29T09:03:20;11.20;99.90
22147;DHT22;13074;48.298;14.424;2023-12-29T09:05:48;11.30;99.90
22147;DHT22;13074;48.298;14.424;2023-12-29T09:08:15;11.40;99.90
22147;DHT22;13074;48.298;14.424;2023-12-29T09:10:43;11.50;99.90
22147;DHT22;13074;48.298;14.424;2023-12-29T09:13:10;11.50;99.90
22147;DHT22;13074;48.298;14.424;2023-12-29T09:15:39;11.40;99.90
22147;DHT22;13074;48.298;14.424;2023-12-29T09:18:07;11.30;99.90
22147;DHT22;13074;48.298;14.424;2023-12-29T09:20:36;11.20;99.90
22147;DHT22;13074;48.298;14.424;2023-12-29T09:23:03;11.30;99.90
22147;DHT22;13074;48.298;14.424;2023-12-29T09:25:31;11.40;99.90
22147;DHT22;13074;48.298;14.424;2023-12-29T09:27:58;11.50;99.90
22147;DHT22;13074;48.298;14.424;2023-12-29T09:30:26;11.60;99.90
22147;DHT22;13074;48.298;14.424;2023-12-29T09:32:55;11.70;99.90
22147;DHT22;13074;48.298;14.424;2023-12-29T09:35:22;11.80;99.90
22147;DHT22;13074;48.298;14.424;2023-12-29T09:37:50;11.90;99.90
22147;DHT22;13074;48.298;14.424;2023-12-29T09:40:17;11.90;99.90
22147;DHT22;13074;48.298;14.424;2023-12-29T09:42:45;12.00;99.90
22147;DHT22;13074;48.298;14.424;2023-12-29T09:45:13;11.60;99.90
22147;DHT22;13074;48.298;14.424;2023-12-29T09:47:42;11.30;99.90
22147;DHT22;13074;48.298;14.424;2023-12-29T09:50:13;11.10;99.90
22147;DHT22;13074;48.298;14.424;2023-12-29T09:52:41;10.80;99.90
22147;DHT22;13074;48.298;14.424;2023-12-29T09:55:10;10.70;99.90
22147;DHT22;13074;48.298;14.424;2023-12-29T09:57:37;10.60;99.90
22147;DHT22;13074;48.298;14.424;2023-12-29T10:00:06;10.60;99.90
22147;DHT22;13074;48.298;14.424;2023-12-29T10:02:37;10.60;99.90
22147;DHT22;13074;48.298;14.424;2023-12-29T10:05:05;10.60;99.90
22147;DHT22;13074;48.298;14.424;2023-12-29T10:07:36;10.70;99.90
22147;DHT22;13074;48.298;14.424;2023-12-29T10:10:05;10.70;99.90
22147;DHT22;13074;48.298;14.424;2023-12-29T10:12:33;10.90;99.90
22147;DHT22;13074;48.298;14.424;2023-12-29T10:15:06;11.00;99.90
22147;DHT22;13074;48.298;14.424;2023-12-29T10:17:58;11.10;99.90
22147;DHT22;13074;48.298;14.424;2023-12-29T10:20:38;11.10;99.90
22147;DHT22;13074;48.298;14.424;2023-12-29T10:23:11;11.20;99.90
22147;DHT22;13074;48.298;14.424;2023-12-29T10:25:40;11.30;99.90
22147;DHT22;13074;48.298;14.424;2023-12-29T10:28:09;11.40;99.90
22147;DHT22;13074;48.298;14.424;2023-12-29T10:30:37;11.50;99.90
22147;DHT22;13074;48.298;14.424;2023-12-29T10:33:04;11.50;99.90
22147;DHT22;13074;48.298;14.424;2023-12-29T10:35:32;11.60;99.90
22147;DHT22;13074;48.298;14.424;2023-12-29T10:38:10;11.70;99.90
22147;DHT22;13074;48.298;14.424;2023-12-29T10:40:38;11.80;99.90
22147;DHT22;13074;48.298;14.424;2023-12-29T10:43:05;11.90;99.90
22147;DHT22;13074;48.298;14.424;2023-12-29T10:45:35;12.00;99.90
22147;DHT22;13074;48.298;14.424;2023-12-29T10:48:03;12.10;99.90
22147;DHT22;13074;48.298;14.424;2023-12-29T10:50:42;12.10;99.90
22147;DHT22;13074;48.298;14.424;2023-12-29T10:53:12;12.20;99.90
22147;DHT22;13074;48.298;14.424;2023-12-29T10:55:39;12.30;99.90
22147;DHT22;13074;48.298;14.424;2023-12-29T10:58:07;12.30;99.90
22147;DHT22;13074;48.298;14.424;2023-12-29T11:00:34;12.50;99.90
22147;DHT22;13074;48.298;14.424;2023-12-29T11:03:02;12.50;99.90
22147;DHT22;13074;48.298;14.424;2023-12-29T11:05:30;12.60;99.90
22147;DHT22;13074;48.298;14.424;2023-12-29T11:07:59;12.60;99.90
22147;DHT22;13074;48.298;14.424;2023-12-29T11:10:30;12.60;99.90
22147;DHT22;13074;48.298;14.424;2023-12-29T11:12:58;12.60;99.90
22147;DHT22;13074;48.298;14.424;2023-12-29T11:15:25;12.50;99.90
22147;DHT22;13074;48.298;14.424;2023-12-29T11:17:56;12.40;99.90
22147;DHT22;13074;48.298;14.424;2023-12-29T11:20:25;12.30;99.90
22147;DHT22;13074;48.298;14.424;2023-12-29T11:22:53;12.00;99.90
22147;DHT22;13074;48.298;14.424;2023-12-29T11:25:21;11.80;99.90
22147;DHT22;13074;48.298;14.424;2023-12-29T11:27:51;11.70;99.90
22147;DHT22;13074;48.298;14.424;2023-12-29T11:30:19;11.60;99.90
22147;DHT22;13074;48.298;14.424;2023-12-29T11:32:49;11.60;99.90
22147;DHT22;13074;48.298;14.424;2023-12-29T11:35:27;11.60;99.90
22147;DHT22;13074;48.298;14.424;2023-12-29T11:40:48;11.80;99.90
22147;DHT22;13074;48.298;14.424;2023-12-29T11:43:18;11.90;99.90
22147;DHT22;13074;48.298;14.424;2023-12-29T11:45:46;12.00;99.90
22147;DHT22;13074;48.298;14.424;2023-12-29T11:51:29;12.30;99.90
22147;DHT22;13074;48.298;14.424;2023-12-29T11:53:57;12.50;99.90
22147;DHT22;13074;48.298;14.424;2023-12-29T11:56:24;12.70;99.90
22147;DHT22;13074;48.298;14.424;2023-12-29T11:58:53;12.90;99.90
22147;DHT22;13074;48.298;14.424;2023-12-29T12:01:33;13.00;99.90
22147;DHT22;13074;48.298;14.424;2023-12-29T12:04:02;13.20;99.90
22147;DHT22;13074;48.298;14.424;2023-12-29T12:06:37;13.40;99.90
22147;DHT22;13074;48.298;14.424;2023-12-29T12:09:21;13.40;99.90
22147;DHT22;13074;48.298;14.424;2023-12-29T12:11:49;13.40;99.90
22147;DHT22;13074;48.298;14.424;2023-12-29T12:14:49;13.40;99.90
22147;DHT22;13074;48.298;14.424;2023-12-29T12:17:31;13.50;99.90
22147;DHT22;13074;48.298;14.424;2023-12-29T12:20:02;13.50;99.90
22147;DHT22;13074;48.298;14.424;2023-12-29T12:22:31;13.60;99.90
22147;DHT22;13074;48.298;14.424;2023-12-29T12:24:59;13.70;99.90
22147;DHT22;13074;48.298;14.424;2023-12-29T12:27:27;13.60;99.90
22147;DHT22;13074;48.298;14.424;2023-12-29T12:29:58;13.50;99.90
22147;DHT22;13074;48.298;14.424;2023-12-29T12:32:28;13.40;99.90
22147;DHT22;13074;48.298;14.424;2023-12-29T12:34:56;13.30;99.90
22147;DHT22;13074;48.298;14.424;2023-12-29T12:37:25;13.10;99.90
22147;DHT22;13074;48.298;14.424;2023-12-29T12:39:53;12.90;99.90
22147;DHT22;13074;48.298;14.424;2023-12-29T12:42:21;12.70;99.90
22147;DHT22;13074;48.298;14.424;2023-12-29T12:44:56;12.60;99.90
22147;DHT22;13074;48.298;14.424;2023-12-29T12:47:27;12.50;99.90
22147;DHT22;13074;48.298;14.424;2023-12-29T12:49:59;12.50;99.90
22147;DHT22;13074;48.298;14.424;2023-12-29T12:52:31;12.50;99.90
22147;DHT22;13074;48.298;14.424;2023-12-29T12:54:58;12.50;99.90
22147;DHT22;13074;48.298;14.424;2023-12-29T12:57:26;12.60;99.90
22147;DHT22;13074;48.298;14.424;2023-12-29T12:59:55;12.70;99.90
22147;DHT22;13074;48.298;14.424;2023-12-29T13:02:23;12.80;99.90
22147;DHT22;13074;48.298;14.424;2023-12-29T13:04:52;12.80;99.90
22147;DHT22;13074;48.298;14.424;2023-12-29T13:07:19;12.80;99.90
22147;DHT22;13074;48.298;14.424;2023-12-29T13:09:48;12.80;99.90
22147;DHT22;13074;48.298;14.424;2023-12-29T13:12:18;12.80;99.90
22147;DHT22;13074;48.298;14.424;2023-12-29T13:14:46;12.70;99.90
22147;DHT22;13074;48.298;14.424;2023-12-29T13:17:15;12.70;99.90
22147;DHT22;13074;48.298;14.424;2023-12-29T13:19:43;12.70;99.90
22147;DHT22;13074;48.298;14.424;2023-12-29T13:22:12;12.70;99.90
22147;DHT22;13074;48.298;14.424;2023-12-29T13:24:44;12.70;99.90
22147;DHT22;13074;48.298;14.424;2023-12-29T13:27:12;12.70;99.90
22147;DHT22;13074;48.298;14.424;2023-12-29T13:29:41;12.50;99.90
22147;DHT22;13074;48.298;14.424;2023-12-29T13:32:12;12.50;99.90
22147;DHT22;13074;48.298;14.424;2023-12-29T13:34:51;12.40;99.90
22147;DHT22;13074;48.298;14.424;2023-12-29T13:37:31;12.40;99.90
22147;DHT22;13074;48.298;14.424;2023-12-29T13:40:08;12.30;99.90
22147;DHT22;13074;48.298;14.424;2023-12-29T13:42:38;12.30;99.90
22147;DHT22;13074;48.298;14.424;2023-12-29T13:45:09;12.30;99.90
22147;DHT22;13074;48.298;14.424;2023-12-29T13:47:37;12.30;99.90
22147;DHT22;13074;48.298;14.424;2023-12-29T13:50:09;12.30;99.90
22147;DHT22;13074;48.298;14.424;2023-12-29T13:52:37;12.30;99.90
22147;DHT22;13074;48.298;14.424;2023-12-29T13:55:05;12.30;99.90
22147;DHT22;13074;48.298;14.424;2023-12-29T13:57:33;12.30;99.90
22147;DHT22;13074;48.298;14.424;2023-12-29T14:00:15;12.30;99.90
22147;DHT22;13074;48.298;14.424;2023-12-29T14:02:57;12.20;99.90
22147;DHT22;13074;48.298;14.424;2023-12-29T14:05:35;12.10;99.90
22147;DHT22;13074;48.298;14.424;2023-12-29T14:08:08;12.10;99.90
22147;DHT22;13074;48.298;14.424;2023-12-29T14:10:37;12.10;99.90
22147;DHT22;13074;48.298;14.424;2023-12-29T14:13:07;12.10;99.90
22147;DHT22;13074;48.298;14.424;2023-12-29T14:15:35;12.00;99.90
22147;DHT22;13074;48.298;14.424;2023-12-29T14:18:08;12.00;99.90
22147;DHT22;13074;48.298;14.424;2023-12-29T14:20:42;11.90;99.90
22147;DHT22;13074;48.298;14.424;2023-12-29T14:23:10;11.90;99.90
22147;DHT22;13074;48.298;14.424;2023-12-29T14:25:37;11.90;99.90
22147;DHT22;13074;48.298;14.424;2023-12-29T14:28:14;11.80;99.90
22147;DHT22;13074;48.298;14.424;2023-12-29T14:30:42;11.70;99.90
22147;DHT22;13074;48.298;14.424;2023-12-29T14:33:10;11.70;99.90
22147;DHT22;13074;48.298;14.424;2023-12-29T14:35:37;11.70;99.90
22147;DHT22;13074;48.298;14.424;2023-12-29T14:38:06;11.70;99.90
22147;DHT22;13074;48.298;14.424;2023-12-29T14:40:34;11.70;99.90
22147;DHT22;13074;48.298;14.424;2023-12-29T14:43:02;11.60;99.90
22147;DHT22;13074;48.298;14.424;2023-12-29T14:45:29;11.60;99.90
22147;DHT22;13074;48.298;14.424;2023-12-29T14:47:58;11.60;99.90
22147;DHT22;13074;48.298;14.424;2023-12-29T14:50:26;11.50;99.90
22147;DHT22;13074;48.298;14.424;2023-12-29T14:52:53;11.40;99.90
22147;DHT22;13074;48.298;14.424;2023-12-29T14:55:22;11.30;99.90
22147;DHT22;13074;48.298;14.424;2023-12-29T14:57:50;11.20;99.90
22147;DHT22;13074;48.298;14.424;2023-12-29T15:00:18;11.20;99.90
22147;DHT22;13074;48.298;14.424;2023-12-29T15:02:45;11.10;99.90
22147;DHT22;13074;48.298;14.424;2023-12-29T15:05:13;11.00;99.90
22147;DHT22;13074;48.298;14.424;2023-12-29T15:07:41;11.00;99.90
22147;DHT22;13074;48.298;14.424;2023-12-29T15:10:12;10.90;99.90
22147;DHT22;13074;48.298;14.424;2023-12-29T15:12:41;10.90;99.90
22147;DHT22;13074;48.298;14.424;2023-12-29T15:15:09;10.80;99.90
22147;DHT22;13074;48.298;14.424;2023-12-29T15:17:37;10.80;99.90
22147;DHT22;13074;48.298;14.424;2023-12-29T15:20:06;10.70;99.90
22147;DHT22;13074;48.298;14.424;2023-12-29T15:22:34;10.60;99.90
22147;DHT22;13074;48.298;14.424;2023-12-29T15:25:01;10.60;99.90
22147;DHT22;13074;48.298;14.424;2023-12-29T15:27:28;10.50;99.90
22147;DHT22;13074;48.298;14.424;2023-12-29T15:29:57;10.40;99.90
22147;DHT22;13074;48.298;14.424;2023-12-29T15:32:25;10.40;99.90
22147;DHT22;13074;48.298;14.424;2023-12-29T15:34:52;10.40;99.90
22147;DHT22;13074;48.298;14.424;2023-12-29T15:37:19;10.40;99.90
22147;DHT22;13074;48.298;14.424;2023-12-29T15:39:47;10.30;99.90
22147;DHT22;13074;48.298;14.424;2023-12-29T15:42:14;10.40;99.90
22147;DHT22;13074;48.298;14.424;2023-12-29T15:44:42;10.30;99.90